createdAt,value
2023-02-23T00:02:06.096Z,82.00
2023-02-23T00:04:34.345Z,82.10
2023-02-23T00:07:01.350Z,82.00
2023-02-23T00:09:35.245Z,82.00
2023-02-23T00:12:07.721Z,81.90
2023-02-23T00:14:37.616Z,82.00
2023-02-23T00:17:05.543Z,81.80
2023-02-23T00:19:33.632Z,82.00
2023-02-23T00:22:01.262Z,82.20
2023-02-23T00:24:29.834Z,82.40
2023-02-23T00:26:57.342Z,82.70
2023-02-23T00:29:24.950Z,82.80
2023-02-23T00:31:56.107Z,82.80
2023-02-23T00:34:23.767Z,82.80
2023-02-23T00:36:55.619Z,82.80
2023-02-23T00:39:28.984Z,82.90
2023-02-23T00:41:57.086Z,82.90
2023-02-23T00:44:25.032Z,82.70
2023-02-23T00:46:52.871Z,82.60
2023-02-23T00:49:22.017Z,82.60
2023-02-23T00:51:49.292Z,82.50
2023-02-23T00:54:17.229Z,82.40
2023-02-23T00:56:46.116Z,82.40
2023-02-23T00:59:14.474Z,82.40
2023-02-23T01:01:42.473Z,82.20
2023-02-23T01:04:11.460Z,81.90
2023-02-23T01:06:39.789Z,81.80
2023-02-23T01:09:13.512Z,81.70
2023-02-23T01:11:41.602Z,81.60
2023-02-23T01:14:10.582Z,81.40
2023-02-23T01:16:38.987Z,81.20
2023-02-23T01:19:06.723Z,81.10
2023-02-23T01:21:36.488Z,80.90
2023-02-23T01:24:05.003Z,80.90
2023-02-23T01:26:37.821Z,80.90
2023-02-23T01:29:10.600Z,80.80
2023-02-23T01:31:45.131Z,80.70
2023-02-23T01:34:14.059Z,80.60
2023-02-23T01:36:42.882Z,80.50
2023-02-23T01:39:13.457Z,80.40
2023-02-23T01:41:44.875Z,80.20
2023-02-23T01:44:15.052Z,80.20
2023-02-23T01:46:45.385Z,80.10
2023-02-23T01:49:20.510Z,80.10
2023-02-23T01:51:51.219Z,80.00
2023-02-23T01:54:23.627Z,80.00
2023-02-23T01:56:58.259Z,79.90
2023-02-23T01:59:30.144Z,79.90
2023-02-23T02:01:57.380Z,79.90
2023-02-23T02:04:25.930Z,79.90
2023-02-23T02:06:56.625Z,80.10
2023-02-23T02:09:28.207Z,80.20
2023-02-23T02:11:55.135Z,80.30
2023-02-23T02:14:31.856Z,80.10
2023-02-23T02:17:10.891Z,80.00
2023-02-23T02:20:23.687Z,79.80
2023-02-23T02:23:13.059Z,79.70
2023-02-23T02:25:48.892Z,79.50
2023-02-23T02:28:22.276Z,79.50
2023-02-23T02:31:21.060Z,79.40
2023-02-23T02:34:18.200Z,79.60
2023-02-23T02:37:07.235Z,79.60
2023-02-23T02:39:53.536Z,79.70
2023-02-23T02:42:23.392Z,79.60
2023-02-23T02:44:53.674Z,79.70
2023-02-23T02:47:38.988Z,79.80
2023-02-23T02:50:13.360Z,79.80
2023-02-23T02:52:45.157Z,79.60
2023-02-23T02:55:26.272Z,79.60
2023-02-23T02:57:58.035Z,79.60
2023-02-23T03:01:06.171Z,79.50
2023-02-23T03:04:04.835Z,79.40
2023-02-23T03:10:46.993Z,79.10
2023-02-23T03:14:08.136Z,79.00
2023-02-23T03:17:02.652Z,78.90
2023-02-23T03:19:55.121Z,78.80
2023-02-23T03:22:46.982Z,78.70
2023-02-23T03:25:46.331Z,78.60
2023-02-23T03:28:35.325Z,78.60
2023-02-23T03:32:04.041Z,78.70
2023-02-23T03:35:03.464Z,78.60
2023-02-23T03:38:07.128Z,78.50
2023-02-23T03:40:57.659Z,78.50
2023-02-23T03:44:09.784Z,78.50
2023-02-23T03:46:56.480Z,78.50
2023-02-23T03:49:46.343Z,78.40
2023-02-23T03:52:38.420Z,78.40
2023-02-23T03:55:34.894Z,78.40
2023-02-23T03:58:21.968Z,78.40
2023-02-23T04:01:09.732Z,78.50
2023-02-23T04:03:58.749Z,78.60
2023-02-23T04:06:50.246Z,78.70
2023-02-23T04:09:35.851Z,78.70
2023-02-23T04:12:40.488Z,78.80
2023-02-23T04:15:17.688Z,78.80
2023-02-23T04:17:44.938Z,78.80
2023-02-23T04:20:13.597Z,78.80
2023-02-23T04:22:40.536Z,78.80
2023-02-23T04:25:08.998Z,78.70
2023-02-23T04:27:36.647Z,78.70
2023-02-23T04:30:04.416Z,78.60
2023-02-23T04:32:31.472Z,78.60
2023-02-23T04:34:58.435Z,78.50
2023-02-23T04:37:25.314Z,78.70
2023-02-23T04:39:52.186Z,78.80
2023-02-23T04:42:20.569Z,78.90
2023-02-23T04:44:47.812Z,79.10
2023-02-23T04:47:16.146Z,79.20
2023-02-23T04:49:43.888Z,79.30
2023-02-23T04:52:10.864Z,79.30
2023-02-23T04:54:39.230Z,79.40
2023-02-23T04:57:06.853Z,79.40
2023-02-23T04:59:33.830Z,79.40
2023-02-23T05:02:00.779Z,79.50
2023-02-23T05:04:27.958Z,79.60
2023-02-23T05:06:55.173Z,79.60
2023-02-23T05:09:22.104Z,79.70
2023-02-23T05:11:49.123Z,79.80
2023-02-23T05:14:15.989Z,79.90
2023-02-23T05:16:42.977Z,79.90
2023-02-23T05:19:09.924Z,80.10
2023-02-23T05:21:37.139Z,80.30
2023-02-23T05:24:04.710Z,80.40
2023-02-23T05:26:31.876Z,80.50
2023-02-23T05:28:58.820Z,80.60
2023-02-23T05:31:26.569Z,80.70
2023-02-23T05:33:54.947Z,80.80
2023-02-23T05:36:22.976Z,80.80
2023-02-23T05:38:49.843Z,80.90
2023-02-23T05:41:19.990Z,81.00
2023-02-23T05:43:48.150Z,81.00
2023-02-23T05:46:21.487Z,81.00
2023-02-23T05:48:48.862Z,81.00
2023-02-23T05:51:18.066Z,81.20
2023-02-23T05:53:46.743Z,81.20
2023-02-23T05:56:20.574Z,81.40
2023-02-23T05:58:57.817Z,81.40
2023-02-23T06:01:26.680Z,81.30
2023-02-23T06:03:54.095Z,81.20
2023-02-23T06:06:22.329Z,81.30
2023-02-23T06:08:49.927Z,81.40
2023-02-23T06:11:17.228Z,81.50
2023-02-23T06:13:44.775Z,81.50
2023-02-23T06:16:11.901Z,81.50
2023-02-23T06:18:38.883Z,81.50
2023-02-23T06:21:05.898Z,81.60
2023-02-23T06:23:33.634Z,81.70
2023-02-23T06:26:00.707Z,81.90
2023-02-23T06:28:28.404Z,81.90
2023-02-23T06:30:56.122Z,82.00
2023-02-23T06:33:23.436Z,82.10
2023-02-23T06:35:50.487Z,82.30
2023-02-23T06:38:17.513Z,82.30
2023-02-23T06:40:44.764Z,82.40
2023-02-23T06:43:11.740Z,82.40
2023-02-23T06:45:39.273Z,82.60
2023-02-23T06:48:06.929Z,82.80
2023-02-23T06:50:34.124Z,82.80
2023-02-23T06:53:01.062Z,82.90
2023-02-23T06:55:28.030Z,83.00
2023-02-23T06:57:54.984Z,83.20
2023-02-23T07:00:22.433Z,83.30
2023-02-23T07:02:49.566Z,83.20
2023-02-23T07:05:16.659Z,83.20
2023-02-23T07:07:44.069Z,84.10
2023-02-23T07:10:11.705Z,83.20
2023-02-23T07:12:38.685Z,83.50
2023-02-23T07:15:06.498Z,83.60
2023-02-23T07:17:33.518Z,83.60
2023-02-23T07:20:00.456Z,83.70
2023-02-23T07:22:30.304Z,83.80
2023-02-23T07:24:57.608Z,83.70
2023-02-23T07:27:25.167Z,83.60
2023-02-23T07:29:52.176Z,83.50
2023-02-23T07:32:19.439Z,83.50
2023-02-23T07:34:47.909Z,83.30
2023-02-23T07:37:15.128Z,83.20
2023-02-23T07:39:42.047Z,83.10
2023-02-23T07:42:09.018Z,83.00
2023-02-23T07:44:36.437Z,83.20
2023-02-23T07:47:03.443Z,83.40
2023-02-23T07:49:30.556Z,83.20
2023-02-23T07:51:57.483Z,83.10
2023-02-23T07:54:25.500Z,83.30
2023-02-23T07:56:52.997Z,83.80
2023-02-23T07:59:20.369Z,84.20
2023-02-23T08:01:47.473Z,85.00
2023-02-23T08:04:14.420Z,84.20
2023-02-23T08:06:41.377Z,84.20
2023-02-23T08:09:08.326Z,84.20
2023-02-23T08:11:35.358Z,84.30
2023-02-23T08:14:02.405Z,84.40
2023-02-23T08:16:31.595Z,84.30
2023-02-23T08:19:02.246Z,84.10
2023-02-23T08:21:29.954Z,84.10
2023-02-23T08:23:58.165Z,84.00
2023-02-23T08:26:25.614Z,83.60
2023-02-23T08:28:54.118Z,83.50
2023-02-23T08:31:24.334Z,83.20
2023-02-23T08:33:52.424Z,83.00
2023-02-23T08:36:20.778Z,82.80
2023-02-23T08:38:48.708Z,82.60
2023-02-23T08:41:16.005Z,82.50
2023-02-23T08:43:44.029Z,82.40
2023-02-23T08:46:11.763Z,82.10
2023-02-23T08:48:40.384Z,82.00
2023-02-23T08:51:08.358Z,81.60
2023-02-23T08:53:36.451Z,81.20
2023-02-23T08:56:06.207Z,81.10
2023-02-23T08:58:35.038Z,80.80
2023-02-23T09:01:03.253Z,80.50
2023-02-23T09:03:30.906Z,80.20
2023-02-23T09:06:05.382Z,79.90
2023-02-23T09:08:32.423Z,79.40
2023-02-23T09:10:59.830Z,78.70
2023-02-23T09:13:26.700Z,78.20
2023-02-23T09:15:54.540Z,77.50
2023-02-23T09:18:24.129Z,77.00
2023-02-23T09:20:51.970Z,77.10
2023-02-23T09:23:18.999Z,75.90
2023-02-23T09:25:46.499Z,75.60
2023-02-23T09:28:15.296Z,75.20
2023-02-23T09:30:43.597Z,75.00
2023-02-23T09:33:11.033Z,74.60
2023-02-23T09:35:38.233Z,73.90
2023-02-23T09:38:07.197Z,73.20
2023-02-23T09:40:44.735Z,72.80
2023-02-23T09:43:48.576Z,72.90
2023-02-23T09:46:38.412Z,72.80
2023-02-23T09:49:10.794Z,72.90
2023-02-23T09:51:41.663Z,72.70
2023-02-23T09:54:12.902Z,72.50
2023-02-23T09:56:51.138Z,71.80
2023-02-23T09:59:20.648Z,71.10
2023-02-23T10:01:48.763Z,71.10
2023-02-23T10:04:37.466Z,71.00
2023-02-23T10:07:20.856Z,70.60
2023-02-23T10:10:06.365Z,70.00
2023-02-23T10:12:40.725Z,69.50
2023-02-23T10:15:35.153Z,69.10
2023-02-23T10:18:24.650Z,68.30
2023-02-23T10:21:11.024Z,67.90
2023-02-23T10:24:19.524Z,68.10
2023-02-23T10:26:58.122Z,68.40
2023-02-23T10:29:34.613Z,68.80
2023-02-23T10:32:07.683Z,68.90
2023-02-23T10:34:35.960Z,68.70
2023-02-23T10:37:06.038Z,68.70
2023-02-23T10:39:33.647Z,68.20
2023-02-23T10:42:06.553Z,68.10
2023-02-23T10:44:33.801Z,67.60
2023-02-23T10:47:11.757Z,67.40
2023-02-23T10:49:46.301Z,67.10
2023-02-23T10:52:16.952Z,66.60
2023-02-23T10:54:49.057Z,66.50
2023-02-23T10:57:29.175Z,66.00
2023-02-23T11:00:16.305Z,66.00
2023-02-23T11:02:48.003Z,65.70
2023-02-23T11:05:37.272Z,66.00
2023-02-23T11:08:22.320Z,66.10
2023-02-23T11:11:18.981Z,65.80
2023-02-23T11:13:50.761Z,65.70
2023-02-23T11:16:30.418Z,66.00
2023-02-23T11:18:57.549Z,65.80
2023-02-23T11:21:33.614Z,65.70
2023-02-23T11:24:30.838Z,65.70
2023-02-23T11:27:03.946Z,65.40
2023-02-23T11:29:35.850Z,65.60
2023-02-23T11:32:14.948Z,65.50
2023-02-23T11:34:43.473Z,65.20
2023-02-23T11:37:14.483Z,64.50
2023-02-23T11:39:59.811Z,64.50
2023-02-23T11:42:27.958Z,64.60
2023-02-23T11:45:16.457Z,64.60
2023-02-23T11:47:49.953Z,64.20
2023-02-23T11:50:38.764Z,63.80
2023-02-23T11:53:07.036Z,63.60
2023-02-23T11:55:36.701Z,63.40
2023-02-23T11:58:23.212Z,63.20
2023-02-23T12:01:12.347Z,63.00
2023-02-23T12:03:59.596Z,62.50
2023-02-23T12:06:39.524Z,61.70
2023-02-23T12:09:28.045Z,61.30
2023-02-23T12:12:18.429Z,60.80
2023-02-23T12:15:09.477Z,60.80
2023-02-23T12:17:44.373Z,60.50
2023-02-23T12:20:17.797Z,59.70
2023-02-23T12:23:13.629Z,58.70
2023-02-23T12:26:18.055Z,58.10
2023-02-23T12:28:54.304Z,58.00
2023-02-23T12:31:46.523Z,57.70
2023-02-23T12:34:34.695Z,57.30
2023-02-23T12:37:20.499Z,57.50
2023-02-23T12:39:53.191Z,57.70
2023-02-23T12:42:37.941Z,57.70
2023-02-23T12:45:06.707Z,57.40
2023-02-23T12:48:01.454Z,57.50
2023-02-23T12:50:51.443Z,57.40
2023-02-23T12:53:25.235Z,57.00
2023-02-23T12:56:21.550Z,56.50
2023-02-23T12:59:14.188Z,56.40
2023-02-23T13:01:54.389Z,56.70
2023-02-23T13:04:49.346Z,56.40
2023-02-23T13:07:24.484Z,56.50
2023-02-23T13:10:32.840Z,56.70
2023-02-23T13:13:40.815Z,56.10
2023-02-23T13:16:07.966Z,56.00
2023-02-23T13:18:37.720Z,55.80
2023-02-23T13:21:17.977Z,55.70
2023-02-23T13:24:00.463Z,55.50
2023-02-23T13:26:39.164Z,55.30
2023-02-23T13:29:06.113Z,55.20
2023-02-23T13:31:38.676Z,55.10
2023-02-23T13:34:07.078Z,54.60
2023-02-23T13:36:35.804Z,55.00
2023-02-23T13:39:18.498Z,54.70
2023-02-23T13:42:26.436Z,54.10
2023-02-23T13:45:22.713Z,54.40
2023-02-23T13:47:53.357Z,54.70
2023-02-23T13:50:23.123Z,54.10
2023-02-23T13:52:55.648Z,53.50
2023-02-23T13:55:40.005Z,53.30
2023-02-23T13:58:17.415Z,53.40
2023-02-23T14:00:54.044Z,53.60
2023-02-23T14:03:25.976Z,53.70
2023-02-23T14:05:57.524Z,53.70
2023-02-23T14:08:39.110Z,53.50
2023-02-23T14:11:06.983Z,53.10
2023-02-23T14:13:40.477Z,53.00
2023-02-23T14:16:19.418Z,52.70
2023-02-23T14:19:11.809Z,52.40
2023-02-23T14:22:06.003Z,52.20
2023-02-23T14:24:36.262Z,52.20
2023-02-23T14:27:39.898Z,52.50
2023-02-23T14:30:10.973Z,52.20
2023-02-23T14:32:46.740Z,52.40
2023-02-23T14:35:44.529Z,52.90
2023-02-23T14:38:24.927Z,52.90
2023-02-23T14:40:53.867Z,53.20
2023-02-23T14:43:35.924Z,53.30
2023-02-23T14:46:05.966Z,52.90
2023-02-23T14:48:36.624Z,52.70
2023-02-23T14:51:20.813Z,52.60
2023-02-23T14:53:47.784Z,52.40
2023-02-23T14:56:28.055Z,52.70
2023-02-23T14:58:59.598Z,52.60
2023-02-23T15:01:40.052Z,52.40
2023-02-23T15:04:13.051Z,51.90
2023-02-23T15:06:47.020Z,52.20
2023-02-23T15:09:24.581Z,52.40
2023-02-23T15:11:54.183Z,52.20
2023-02-23T15:14:27.939Z,52.50
2023-02-23T15:16:56.734Z,52.50
2023-02-23T15:19:35.826Z,52.70
2023-02-23T15:22:04.915Z,52.80
2023-02-23T15:24:44.785Z,53.10
2023-02-23T15:27:22.685Z,53.30
2023-02-23T15:29:50.001Z,53.50
2023-02-23T15:32:26.358Z,53.90
2023-02-23T15:35:03.632Z,54.30
2023-02-23T15:37:52.773Z,55.10
2023-02-23T15:40:30.059Z,56.10
2023-02-23T15:43:01.313Z,56.60
2023-02-23T15:45:51.595Z,57.10
2023-02-23T15:48:22.902Z,57.50
2023-02-23T15:50:57.433Z,58.00
2023-02-23T15:53:33.364Z,58.60
2023-02-23T15:56:26.515Z,59.00
2023-02-23T15:58:57.155Z,59.60
2023-02-23T16:01:30.433Z,59.90
2023-02-23T16:04:00.279Z,60.10
2023-02-23T16:07:00.841Z,60.70
2023-02-23T16:09:29.725Z,61.30
2023-02-23T16:12:02.593Z,61.80
2023-02-23T16:14:43.109Z,62.30
2023-02-23T16:17:29.525Z,62.80
2023-02-23T16:20:13.833Z,63.20
2023-02-23T16:22:46.052Z,63.60
2023-02-23T16:25:16.474Z,64.00
2023-02-23T16:27:45.694Z,64.50
2023-02-23T16:30:23.290Z,65.00
2023-02-23T16:33:22.494Z,65.50
2023-02-23T16:35:52.186Z,66.20
2023-02-23T16:38:35.395Z,66.50
2023-02-23T16:41:11.204Z,67.00
2023-02-23T16:43:41.229Z,67.20
2023-02-23T16:46:08.250Z,67.70
2023-02-23T16:48:35.155Z,68.00
2023-02-23T16:51:03.162Z,68.20
2023-02-23T16:53:30.114Z,68.60
2023-02-23T16:56:00.988Z,68.70
2023-02-23T16:58:30.757Z,68.90
2023-02-23T17:00:57.780Z,69.00
2023-02-23T17:03:27.959Z,69.30
2023-02-23T17:05:56.118Z,70.20
2023-02-23T17:08:24.459Z,69.50
2023-02-23T17:10:54.296Z,69.70
2023-02-23T17:13:26.384Z,70.70
2023-02-23T17:15:56.275Z,70.10
2023-02-23T17:18:28.177Z,70.20
2023-02-23T17:20:56.661Z,70.30
2023-02-23T17:23:27.122Z,70.50
2023-02-23T17:25:58.594Z,70.60
2023-02-23T17:28:25.920Z,70.70
2023-02-23T17:30:54.273Z,70.90
2023-02-23T17:33:21.460Z,71.90
2023-02-23T17:35:49.061Z,71.30
2023-02-23T17:38:21.501Z,71.50
2023-02-23T17:40:48.565Z,71.70
2023-02-23T17:43:15.609Z,72.00
2023-02-23T17:45:42.546Z,72.20
2023-02-23T17:48:09.522Z,72.30
2023-02-23T17:50:36.617Z,72.60
2023-02-23T17:53:03.690Z,72.70
2023-02-23T17:55:30.601Z,72.80
2023-02-23T17:57:57.684Z,73.00
2023-02-23T18:00:25.274Z,73.00
2023-02-23T18:02:52.281Z,73.20
2023-02-23T18:05:19.527Z,73.30
2023-02-23T18:07:48.310Z,73.50
2023-02-23T18:10:18.886Z,73.70
2023-02-23T18:12:46.123Z,73.90
2023-02-23T18:15:13.919Z,74.10
2023-02-23T18:17:41.056Z,74.30
2023-02-23T18:20:08.633Z,74.60
2023-02-23T18:22:35.595Z,74.90
2023-02-23T18:25:06.569Z,75.20
2023-02-23T18:27:43.419Z,75.80
2023-02-23T18:30:12.632Z,75.90
2023-02-23T18:32:42.404Z,75.90
2023-02-23T18:35:11.320Z,76.00
2023-02-23T18:37:38.585Z,76.10
2023-02-23T18:40:07.065Z,76.30
2023-02-23T18:42:34.144Z,76.30
2023-02-23T18:45:01.524Z,76.40
2023-02-23T18:47:29.854Z,76.40
2023-02-23T18:49:58.871Z,76.50
2023-02-23T18:52:27.281Z,76.40
2023-02-23T18:54:57.254Z,76.50
2023-02-23T18:57:26.387Z,76.70
2023-02-23T18:59:57.526Z,76.60
2023-02-23T19:02:34.647Z,76.90
2023-02-23T19:05:05.268Z,76.80
2023-02-23T19:07:33.805Z,77.00
2023-02-23T19:10:06.688Z,76.90
2023-02-23T19:12:36.797Z,77.00
2023-02-23T19:15:07.840Z,77.00
2023-02-23T19:17:36.136Z,77.20
2023-02-23T19:20:08.077Z,77.20
2023-02-23T19:22:35.358Z,77.20
2023-02-23T19:25:02.613Z,77.30
2023-02-23T19:27:29.792Z,77.40
2023-02-23T19:29:57.896Z,77.60
2023-02-23T19:32:25.194Z,77.60
2023-02-23T19:34:52.358Z,77.80
2023-02-23T19:37:19.618Z,78.00
2023-02-23T19:39:47.576Z,78.10
2023-02-23T19:42:18.968Z,78.20
2023-02-23T19:44:46.283Z,78.40
2023-02-23T19:47:13.319Z,78.60
2023-02-23T19:49:40.299Z,78.60
2023-02-23T19:52:07.346Z,78.70
2023-02-23T19:54:37.986Z,78.60
2023-02-23T19:57:06.231Z,78.80
2023-02-23T19:59:33.270Z,78.90
2023-02-23T20:02:00.330Z,79.00
2023-02-23T20:04:28.363Z,79.30
2023-02-23T20:06:55.359Z,79.40
2023-02-23T20:09:22.441Z,79.40
2023-02-23T20:11:49.503Z,79.50
2023-02-23T20:14:17.220Z,79.10
2023-02-23T20:16:44.875Z,79.40
2023-02-23T20:19:11.916Z,79.70
2023-02-23T20:21:39.795Z,79.90
2023-02-23T20:24:07.239Z,79.80
2023-02-23T20:26:37.296Z,79.80
2023-02-23T20:29:06.810Z,79.80
2023-02-23T20:31:35.705Z,79.80
2023-02-23T20:34:05.730Z,79.80
2023-02-23T20:36:33.126Z,80.00
2023-02-23T20:39:00.590Z,79.90
2023-02-23T20:41:31.615Z,79.80
2023-02-23T20:44:00.926Z,79.80
2023-02-23T20:46:30.938Z,79.90
2023-02-23T20:48:59.370Z,79.90
2023-02-23T20:51:27.201Z,80.20
2023-02-23T20:53:54.243Z,80.30
2023-02-23T20:56:22.229Z,80.00
2023-02-23T20:58:49.782Z,80.00
2023-02-23T21:01:22.955Z,79.90
2023-02-23T21:03:54.109Z,79.90
2023-02-23T21:06:23.856Z,80.00
2023-02-23T21:08:55.799Z,80.10
2023-02-23T21:11:25.424Z,80.30
2023-02-23T21:13:53.223Z,80.50
2023-02-23T21:16:23.621Z,80.70
2023-02-23T21:18:55.082Z,80.60
2023-02-23T21:21:22.241Z,80.40
2023-02-23T21:23:51.287Z,80.20
2023-02-23T21:26:21.635Z,80.20
2023-02-23T21:28:49.140Z,80.30
2023-02-23T21:31:16.237Z,80.30
2023-02-23T21:33:44.374Z,80.40
2023-02-23T21:36:12.551Z,80.40
2023-02-23T21:38:43.838Z,80.30
2023-02-23T21:41:12.823Z,80.30
2023-02-23T21:43:41.957Z,80.30
2023-02-23T21:46:15.620Z,80.30
2023-02-23T21:48:43.955Z,80.30
2023-02-23T21:51:13.604Z,80.30
2023-02-23T21:53:41.570Z,80.60
2023-02-23T21:56:12.077Z,80.80
2023-02-23T21:58:43.201Z,80.80
2023-02-23T22:01:15.738Z,80.60
2023-02-23T22:03:45.135Z,80.80
2023-02-23T22:06:17.352Z,80.90
2023-02-23T22:08:47.336Z,80.80
2023-02-23T22:11:17.305Z,80.60
2023-02-23T22:13:48.995Z,80.50
2023-02-23T22:16:18.778Z,80.50
2023-02-23T22:18:46.712Z,80.50
2023-02-23T22:21:13.947Z,80.60
2023-02-23T22:23:43.983Z,80.60
2023-02-23T22:26:11.146Z,80.80
2023-02-23T22:28:38.111Z,80.70
2023-02-23T22:31:11.321Z,80.60
2023-02-23T22:33:41.599Z,80.50
2023-02-23T22:36:10.721Z,80.50
2023-02-23T22:38:38.079Z,80.60
2023-02-23T22:41:11.861Z,80.80
2023-02-23T22:43:47.744Z,80.80
2023-02-23T22:46:16.309Z,81.00
2023-02-23T22:48:45.160Z,81.00
2023-02-23T22:51:13.503Z,81.00
2023-02-23T22:53:40.895Z,81.00
2023-02-23T22:56:09.563Z,81.20
2023-02-23T22:58:36.705Z,80.90
2023-02-23T23:01:06.033Z,80.70
2023-02-23T23:03:45.817Z,80.70
2023-02-23T23:06:22.194Z,80.80
2023-02-23T23:08:55.871Z,80.90
2023-02-23T23:11:30.688Z,81.10
2023-02-23T23:14:02.139Z,81.60
2023-02-23T23:16:32.558Z,81.50
2023-02-23T23:19:07.865Z,81.30
2023-02-23T23:21:36.026Z,81.10
2023-02-23T23:24:07.889Z,81.20
2023-02-23T23:26:39.672Z,81.20
2023-02-23T23:29:10.226Z,81.40
2023-02-23T23:31:39.003Z,81.60
2023-02-23T23:34:11.419Z,81.40
2023-02-23T23:36:49.445Z,81.10
2023-02-23T23:39:21.007Z,81.20
2023-02-23T23:41:49.451Z,81.20
2023-02-23T23:44:19.160Z,81.20
2023-02-23T23:46:46.910Z,81.20
2023-02-23T23:49:16.627Z,81.10
2023-02-23T23:51:47.838Z,81.20
2023-02-23T23:54:22.283Z,81.10
2023-02-23T23:56:50.478Z,81.00
2023-02-23T23:59:21.381Z,81.00
